sensor_id;sensor_type;location;lat;lon;timestamp;pressure;altitude;pressure_sealevel;temperature
45701;BMP280;36277;32.852;-116.998;2022-11-25T00:01:26;100473.81;;;28.55
45701;BMP280;36277;32.852;-116.998;2022-11-25T00:03:56;100469.75;;;28.44
45701;BMP280;36277;32.852;-116.998;2022-11-25T00:06:28;100485.13;;;28.34
45701;BMP280;36277;32.852;-116.998;2022-11-25T00:08:57;100490.25;;;28.30
45701;BMP280;36277;32.852;-116.998;2022-11-25T00:11:25;100493.22;;;28.16
45701;BMP280;36277;32.852;-116.998;2022-11-25T00:13:51;100486.56;;;28.10
45701;BMP280;36277;32.852;-116.998;2022-11-25T00:16:20;100491.69;;;28.07
45701;BMP280;36277;32.852;-116.998;2022-11-25T00:18:49;100497.91;;;28.02
45701;BMP280;36277;32.852;-116.998;2022-11-25T00:21:22;100493.38;;;27.88
45701;BMP280;36277;32.852;-116.998;2022-11-25T00:23:57;100495.44;;;27.67
45701;BMP280;36277;32.852;-116.998;2022-11-25T00:26:25;100494.94;;;27.57
45701;BMP280;36277;32.852;-116.998;2022-11-25T00:28:52;100498.31;;;27.46
45701;BMP280;36277;32.852;-116.998;2022-11-25T00:31:48;100505.25;;;27.23
45701;BMP280;36277;32.852;-116.998;2022-11-25T00:34:14;100501.06;;;27.06
45701;BMP280;36277;32.852;-116.998;2022-11-25T00:36:41;100515.09;;;26.98
45701;BMP280;36277;32.852;-116.998;2022-11-25T00:39:13;100512.63;;;26.82
45701;BMP280;36277;32.852;-116.998;2022-11-25T00:41:40;100512.06;;;26.65
45701;BMP280;36277;32.852;-116.998;2022-11-25T00:44:28;100520.66;;;26.49
45701;BMP280;36277;32.852;-116.998;2022-11-25T00:47:10;100526.06;;;26.37
45701;BMP280;36277;32.852;-116.998;2022-11-25T00:49:46;100530.41;;;26.25
45701;BMP280;36277;32.852;-116.998;2022-11-25T00:52:15;100538.38;;;26.13
45701;BMP280;36277;32.852;-116.998;2022-11-25T00:54:42;100532.91;;;25.99
45701;BMP280;36277;32.852;-116.998;2022-11-25T00:57:13;100538.22;;;26.00
45701;BMP280;36277;32.852;-116.998;2022-11-25T00:59:40;100553.53;;;25.96
45701;BMP280;36277;32.852;-116.998;2022-11-25T01:02:06;100544.53;;;26.09
45701;BMP280;36277;32.852;-116.998;2022-11-25T01:04:33;100550.78;;;25.96
45701;BMP280;36277;32.852;-116.998;2022-11-25T01:06:59;100559.31;;;26.01
45701;BMP280;36277;32.852;-116.998;2022-11-25T01:09:27;100560.50;;;25.92
45701;BMP280;36277;32.852;-116.998;2022-11-25T01:11:54;100564.13;;;25.78
45701;BMP280;36277;32.852;-116.998;2022-11-25T01:14:21;100560.09;;;25.60
45701;BMP280;36277;32.852;-116.998;2022-11-25T01:16:47;100567.34;;;25.46
45701;BMP280;36277;32.852;-116.998;2022-11-25T01:19:14;100565.13;;;25.56
45701;BMP280;36277;32.852;-116.998;2022-11-25T01:21:41;100571.03;;;25.53
45701;BMP280;36277;32.852;-116.998;2022-11-25T01:24:08;100565.25;;;25.48
45701;BMP280;36277;32.852;-116.998;2022-11-25T01:26:39;100573.41;;;25.56
45701;BMP280;36277;32.852;-116.998;2022-11-25T01:29:10;100579.69;;;25.50
45701;BMP280;36277;32.852;-116.998;2022-11-25T01:31:37;100572.06;;;25.52
45701;BMP280;36277;32.852;-116.998;2022-11-25T01:34:12;100572.75;;;25.54
45701;BMP280;36277;32.852;-116.998;2022-11-25T01:36:39;100577.44;;;25.54
45701;BMP280;36277;32.852;-116.998;2022-11-25T01:39:05;100573.25;;;25.58
45701;BMP280;36277;32.852;-116.998;2022-11-25T01:41:33;100575.34;;;25.56
45701;BMP280;36277;32.852;-116.998;2022-11-25T01:44:08;100577.91;;;25.57
45701;BMP280;36277;32.852;-116.998;2022-11-25T01:49:50;100585.44;;;25.49
45701;BMP280;36277;32.852;-116.998;2022-11-25T01:52:39;100576.84;;;25.58
45701;BMP280;36277;32.852;-116.998;2022-11-25T01:55:13;100577.16;;;25.34
45701;BMP280;36277;32.852;-116.998;2022-11-25T01:57:50;100573.53;;;25.20
45701;BMP280;36277;32.852;-116.998;2022-11-25T02:00:20;100584.44;;;25.13
45701;BMP280;36277;32.852;-116.998;2022-11-25T02:02:49;100578.28;;;25.26
45701;BMP280;36277;32.852;-116.998;2022-11-25T02:05:20;100574.47;;;25.27
45701;BMP280;36277;32.852;-116.998;2022-11-25T02:07:48;100576.56;;;25.25
45701;BMP280;36277;32.852;-116.998;2022-11-25T02:10:23;100588.03;;;25.22
45701;BMP280;36277;32.852;-116.998;2022-11-25T02:12:52;100581.16;;;25.18
45701;BMP280;36277;32.852;-116.998;2022-11-25T02:15:19;100594.41;;;25.22
45701;BMP280;36277;32.852;-116.998;2022-11-25T02:17:46;100595.91;;;25.25
45701;BMP280;36277;32.852;-116.998;2022-11-25T02:20:16;100605.53;;;25.28
45701;BMP280;36277;32.852;-116.998;2022-11-25T02:25:51;100603.75;;;25.35
45701;BMP280;36277;32.852;-116.998;2022-11-25T02:28:21;100607.16;;;25.37
45701;BMP280;36277;32.852;-116.998;2022-11-25T02:30:49;100617.09;;;25.32
45701;BMP280;36277;32.852;-116.998;2022-11-25T02:33:16;100617.75;;;25.34
45701;BMP280;36277;32.852;-116.998;2022-11-25T02:35:49;100612.03;;;25.35
45701;BMP280;36277;32.852;-116.998;2022-11-25T02:41:15;100603.44;;;25.30
45701;BMP280;36277;32.852;-116.998;2022-11-25T02:43:43;100606.22;;;25.30
45701;BMP280;36277;32.852;-116.998;2022-11-25T02:46:12;100598.41;;;25.34
45701;BMP280;36277;32.852;-116.998;2022-11-25T02:48:40;100597.16;;;25.36
45701;BMP280;36277;32.852;-116.998;2022-11-25T02:51:10;100598.69;;;25.39
45701;BMP280;36277;32.852;-116.998;2022-11-25T02:53:36;100609.25;;;25.35
45701;BMP280;36277;32.852;-116.998;2022-11-25T02:56:03;100611.34;;;25.33
45701;BMP280;36277;32.852;-116.998;2022-11-25T02:58:30;100615.47;;;25.37
45701;BMP280;36277;32.852;-116.998;2022-11-25T03:00:56;100622.63;;;25.46
45701;BMP280;36277;32.852;-116.998;2022-11-25T03:03:22;100617.66;;;25.42
45701;BMP280;36277;32.852;-116.998;2022-11-25T03:05:49;100618.31;;;25.44
45701;BMP280;36277;32.852;-116.998;2022-11-25T03:08:15;100617.84;;;25.40
45701;BMP280;36277;32.852;-116.998;2022-11-25T03:10:42;100620.59;;;25.40
45701;BMP280;36277;32.852;-116.998;2022-11-25T03:13:09;100629.19;;;25.45
45701;BMP280;36277;32.852;-116.998;2022-11-25T03:15:36;100638.81;;;25.35
45701;BMP280;36277;32.852;-116.998;2022-11-25T03:18:05;100636.16;;;25.41
45701;BMP280;36277;32.852;-116.998;2022-11-25T03:20:32;100637.75;;;25.36
45701;BMP280;36277;32.852;-116.998;2022-11-25T03:23:00;100645.19;;;25.35
45701;BMP280;36277;32.852;-116.998;2022-11-25T03:25:26;100651.75;;;25.34
45701;BMP280;36277;32.852;-116.998;2022-11-25T03:27:53;100656.72;;;25.39
45701;BMP280;36277;32.852;-116.998;2022-11-25T03:30:22;100657.97;;;25.36
45701;BMP280;36277;32.852;-116.998;2022-11-25T03:32:49;100664.31;;;25.37
45701;BMP280;36277;32.852;-116.998;2022-11-25T03:35:15;100674.84;;;25.41
45701;BMP280;36277;32.852;-116.998;2022-11-25T03:37:42;100669.97;;;25.43
45701;BMP280;36277;32.852;-116.998;2022-11-25T03:40:10;100676.34;;;25.44
45701;BMP280;36277;32.852;-116.998;2022-11-25T03:42:37;100674.25;;;25.46
45701;BMP280;36277;32.852;-116.998;2022-11-25T03:45:04;100663.28;;;25.52
45701;BMP280;36277;32.852;-116.998;2022-11-25T03:47:31;100674.47;;;25.44
45701;BMP280;36277;32.852;-116.998;2022-11-25T03:49:57;100684.47;;;25.45
45701;BMP280;36277;32.852;-116.998;2022-11-25T03:52:24;100669.59;;;25.46
45701;BMP280;36277;32.852;-116.998;2022-11-25T03:54:50;100666.72;;;25.54
45701;BMP280;36277;32.852;-116.998;2022-11-25T03:57:16;100676.28;;;25.52
45701;BMP280;36277;32.852;-116.998;2022-11-25T03:59:43;100690.94;;;25.52
45701;BMP280;36277;32.852;-116.998;2022-11-25T04:02:10;100698.84;;;25.55
45701;BMP280;36277;32.852;-116.998;2022-11-25T04:04:36;100702.50;;;25.56
45701;BMP280;36277;32.852;-116.998;2022-11-25T04:07:02;100717.16;;;25.56
45701;BMP280;36277;32.852;-116.998;2022-11-25T04:09:29;100728.78;;;25.52
45701;BMP280;36277;32.852;-116.998;2022-11-25T04:11:55;100739.38;;;25.48
45701;BMP280;36277;32.852;-116.998;2022-11-25T04:14:40;100741.56;;;25.53
45701;BMP280;36277;32.852;-116.998;2022-11-25T04:17:06;100743.06;;;25.55
45701;BMP280;36277;32.852;-116.998;2022-11-25T04:19:32;100739.09;;;25.58
45701;BMP280;36277;32.852;-116.998;2022-11-25T04:21:58;100732.69;;;25.57
45701;BMP280;36277;32.852;-116.998;2022-11-25T04:24:26;100735.28;;;25.59
45701;BMP280;36277;32.852;-116.998;2022-11-25T04:26:52;100734.63;;;25.57
45701;BMP280;36277;32.852;-116.998;2022-11-25T04:29:19;100739.56;;;25.61
45701;BMP280;36277;32.852;-116.998;2022-11-25T04:31:45;100739.09;;;25.58
45701;BMP280;36277;32.852;-116.998;2022-11-25T04:34:12;100746.50;;;25.57
45701;BMP280;36277;32.852;-116.998;2022-11-25T04:36:38;100758.06;;;25.61
45701;BMP280;36277;32.852;-116.998;2022-11-25T04:39:04;100768.34;;;25.67
45701;BMP280;36277;32.852;-116.998;2022-11-25T04:41:30;100764.66;;;25.60
45701;BMP280;36277;32.852;-116.998;2022-11-25T04:43:59;100771.03;;;25.60
45701;BMP280;36277;32.852;-116.998;2022-11-25T04:46:39;100771.41;;;25.57
45701;BMP280;36277;32.852;-116.998;2022-11-25T04:49:05;100778.84;;;25.57
45701;BMP280;36277;32.852;-116.998;2022-11-25T04:51:32;100772.53;;;25.63
45701;BMP280;36277;32.852;-116.998;2022-11-25T04:53:58;100783.13;;;25.59
45701;BMP280;36277;32.852;-116.998;2022-11-25T04:56:24;100802.31;;;25.61
45701;BMP280;36277;32.852;-116.998;2022-11-25T04:58:50;100794.84;;;25.61
45701;BMP280;36277;32.852;-116.998;2022-11-25T05:01:35;100792.78;;;25.63
45701;BMP280;36277;32.852;-116.998;2022-11-25T05:04:02;100800.38;;;25.61
45701;BMP280;36277;32.852;-116.998;2022-11-25T05:06:28;100800.97;;;25.57
45701;BMP280;36277;32.852;-116.998;2022-11-25T05:08:54;100786.25;;;25.56
45701;BMP280;36277;32.852;-116.998;2022-11-25T05:11:21;100785.22;;;25.57
45701;BMP280;36277;32.852;-116.998;2022-11-25T05:13:47;100776.94;;;25.57
45701;BMP280;36277;32.852;-116.998;2022-11-25T05:16:13;100787.31;;;25.55
45701;BMP280;36277;32.852;-116.998;2022-11-25T05:18:40;100791.41;;;25.59
45701;BMP280;36277;32.852;-116.998;2022-11-25T05:21:06;100802.47;;;25.59
45701;BMP280;36277;32.852;-116.998;2022-11-25T05:23:32;100808.38;;;25.56
45701;BMP280;36277;32.852;-116.998;2022-11-25T05:26:03;100801.63;;;25.59
45701;BMP280;36277;32.852;-116.998;2022-11-25T05:28:29;100817.34;;;25.58
45701;BMP280;36277;32.852;-116.998;2022-11-25T05:30:56;100836.13;;;25.63
45701;BMP280;36277;32.852;-116.998;2022-11-25T05:33:23;100825.47;;;25.60
45701;BMP280;36277;32.852;-116.998;2022-11-25T05:35:58;100824.59;;;25.59
45701;BMP280;36277;32.852;-116.998;2022-11-25T05:38:25;100831.16;;;25.58
45701;BMP280;36277;32.852;-116.998;2022-11-25T05:40:51;100819.44;;;25.56
45701;BMP280;36277;32.852;-116.998;2022-11-25T05:43:18;100819.44;;;25.56
45701;BMP280;36277;32.852;-116.998;2022-11-25T05:45:44;100812.19;;;25.55
45701;BMP280;36277;32.852;-116.998;2022-11-25T05:48:11;100827.94;;;25.55
45701;BMP280;36277;32.852;-116.998;2022-11-25T05:50:37;100824.59;;;25.59
45701;BMP280;36277;32.852;-116.998;2022-11-25T05:53:03;100829.66;;;25.56
45701;BMP280;36277;32.852;-116.998;2022-11-25T05:55:30;100827.94;;;25.55
45701;BMP280;36277;32.852;-116.998;2022-11-25T05:57:57;100831.16;;;25.58
45701;BMP280;36277;32.852;-116.998;2022-11-25T06:00:24;100832.78;;;25.53
45701;BMP280;36277;32.852;-116.998;2022-11-25T06:02:51;100834.88;;;25.51
45701;BMP280;36277;32.852;-116.998;2022-11-25T06:05:17;100845.63;;;25.46
45701;BMP280;36277;32.852;-116.998;2022-11-25T06:07:43;100844.09;;;25.43
45701;BMP280;36277;32.852;-116.998;2022-11-25T06:10:10;100840.81;;;25.40
45701;BMP280;36277;32.852;-116.998;2022-11-25T06:12:36;100846.88;;;25.43
45701;BMP280;36277;32.852;-116.998;2022-11-25T06:15:03;100856.06;;;25.36
45701;BMP280;36277;32.852;-116.998;2022-11-25T06:17:29;100871.78;;;25.35
45701;BMP280;36277;32.852;-116.998;2022-11-25T06:19:55;100870.44;;;25.31
45701;BMP280;36277;32.852;-116.998;2022-11-25T06:22:22;100876.31;;;25.28
45701;BMP280;36277;32.852;-116.998;2022-11-25T06:24:48;100871.69;;;25.29
45701;BMP280;36277;32.852;-116.998;2022-11-25T06:27:14;100888.78;;;25.25
45701;BMP280;36277;32.852;-116.998;2022-11-25T06:29:40;100885.19;;;25.24
45701;BMP280;36277;32.852;-116.998;2022-11-25T06:32:07;100885.53;;;25.21
45701;BMP280;36277;32.852;-116.998;2022-11-25T06:34:33;100883.09;;;25.26
45701;BMP280;36277;32.852;-116.998;2022-11-25T06:37:01;100875.38;;;25.22
45701;BMP280;36277;32.852;-116.998;2022-11-25T06:39:27;100880.56;;;25.17
45701;BMP280;36277;32.852;-116.998;2022-11-25T06:41:53;100891.25;;;25.20
45701;BMP280;36277;32.852;-116.998;2022-11-25T06:44:19;100890.59;;;25.18
45701;BMP280;36277;32.852;-116.998;2022-11-25T06:46:45;100885.75;;;25.12
45701;BMP280;36277;32.852;-116.998;2022-11-25T06:49:12;100877.25;;;25.13
45701;BMP280;36277;32.852;-116.998;2022-11-25T06:51:38;100888.03;;;25.08
45701;BMP280;36277;32.852;-116.998;2022-11-25T06:54:04;100878.13;;;25.22
45701;BMP280;36277;32.852;-116.998;2022-11-25T06:56:31;100890.34;;;25.27
45701;BMP280;36277;32.852;-116.998;2022-11-25T06:58:58;100888.63;;;25.26
45701;BMP280;36277;32.852;-116.998;2022-11-25T07:01:28;100898.44;;;25.28
45701;BMP280;36277;32.852;-116.998;2022-11-25T07:04:00;100889.09;;;25.29
45701;BMP280;36277;32.852;-116.998;2022-11-25T07:06:28;100888.63;;;25.26
45701;BMP280;36277;32.852;-116.998;2022-11-25T07:08:55;100881.16;;;25.27
45701;BMP280;36277;32.852;-116.998;2022-11-25T07:13:55;100892.22;;;25.27
45701;BMP280;36277;32.852;-116.998;2022-11-25T07:16:21;100896.22;;;25.24
45701;BMP280;36277;32.852;-116.998;2022-11-25T07:18:48;100889.19;;;25.22
45701;BMP280;36277;32.852;-116.998;2022-11-25T07:21:19;100890.69;;;25.24
45701;BMP280;36277;32.852;-116.998;2022-11-25T07:23:47;100883.81;;;25.20
45701;BMP280;36277;32.852;-116.998;2022-11-25T07:26:17;100876.75;;;25.18
45701;BMP280;36277;32.852;-116.998;2022-11-25T07:28:44;100895.22;;;25.17
45701;BMP280;36277;32.852;-116.998;2022-11-25T07:31:19;100883.13;;;25.18
45701;BMP280;36277;32.852;-116.998;2022-11-25T07:33:46;100888.31;;;25.13
45701;BMP280;36277;32.852;-116.998;2022-11-25T07:36:14;100876.41;;;25.13
45701;BMP280;36277;32.852;-116.998;2022-11-25T07:38:40;100875.72;;;25.11
45701;BMP280;36277;32.852;-116.998;2022-11-25T07:41:15;100886.09;;;25.09
45701;BMP280;36277;32.852;-116.998;2022-11-25T07:43:50;100879.72;;;25.08
45701;BMP280;36277;32.852;-116.998;2022-11-25T07:46:29;100876.47;;;25.05
45701;BMP280;36277;32.852;-116.998;2022-11-25T07:48:59;100877.69;;;25.02
45701;BMP280;36277;32.852;-116.998;2022-11-25T07:51:52;100878.91;;;25.00
45701;BMP280;36277;32.852;-116.998;2022-11-25T07:54:19;100881.84;;;24.98
45701;BMP280;36277;32.852;-116.998;2022-11-25T07:56:46;100874.81;;;24.96
45701;BMP280;36277;32.852;-116.998;2022-11-25T07:59:17;100877.38;;;24.97
45701;BMP280;36277;32.852;-116.998;2022-11-25T08:01:45;100880.50;;;24.94
45701;BMP280;36277;32.852;-116.998;2022-11-25T08:04:13;100880.50;;;24.94
45701;BMP280;36277;32.852;-116.998;2022-11-25T08:06:43;100877.72;;;24.94
45701;BMP280;36277;32.852;-116.998;2022-11-25T08:09:12;100880.84;;;24.91
45701;BMP280;36277;32.852;-116.998;2022-11-25T08:11:39;100890.38;;;24.89
45701;BMP280;36277;32.852;-116.998;2022-11-25T08:14:07;100898.81;;;24.87
45701;BMP280;36277;32.852;-116.998;2022-11-25T08:16:35;100895.38;;;24.85
45701;BMP280;36277;32.852;-116.998;2022-11-25T08:19:03;100879.88;;;24.84
45701;BMP280;36277;32.852;-116.998;2022-11-25T08:21:29;100885.56;;;24.83
45701;BMP280;36277;32.852;-116.998;2022-11-25T08:23:56;100884.88;;;24.81
45701;BMP280;36277;32.852;-116.998;2022-11-25T08:26:34;100883.84;;;24.82
45701;BMP280;36277;32.852;-116.998;2022-11-25T08:29:05;100882.47;;;24.78
45701;BMP280;36277;32.852;-116.998;2022-11-25T08:31:36;100879.72;;;24.78
45701;BMP280;36277;32.852;-116.998;2022-11-25T08:34:04;100885.59;;;24.75
45701;BMP280;36277;32.852;-116.998;2022-11-25T08:36:32;100876.63;;;24.73
45701;BMP280;36277;32.852;-116.998;2022-11-25T08:38:59;100883.88;;;24.74
45701;BMP280;36277;32.852;-116.998;2022-11-25T08:41:32;100879.38;;;24.73
45701;BMP280;36277;32.852;-116.998;2022-11-25T08:44:00;100880.63;;;24.70
45701;BMP280;36277;32.852;-116.998;2022-11-25T08:46:30;100883.56;;;24.69
45701;BMP280;36277;32.852;-116.998;2022-11-25T08:48:59;100880.13;;;24.67
45701;BMP280;36277;32.852;-116.998;2022-11-25T08:51:29;100879.25;;;24.66
45701;BMP280;36277;32.852;-116.998;2022-11-25T08:53:56;100882.56;;;24.62
45701;BMP280;36277;32.852;-116.998;2022-11-25T08:56:25;100885.31;;;24.62
45701;BMP280;36277;32.852;-116.998;2022-11-25T08:58:51;100879.13;;;24.60
45701;BMP280;36277;32.852;-116.998;2022-11-25T09:01:18;100887.41;;;24.60
45701;BMP280;36277;32.852;-116.998;2022-11-25T09:03:49;100874.84;;;24.57
45701;BMP280;36277;32.852;-116.998;2022-11-25T09:06:16;100873.13;;;24.56
45701;BMP280;36277;32.852;-116.998;2022-11-25T09:08:44;100889.16;;;24.53
45701;BMP280;36277;32.852;-116.998;2022-11-25T09:11:10;100897.63;;;24.51
45701;BMP280;36277;32.852;-116.998;2022-11-25T09:13:37;100889.50;;;24.50
45701;BMP280;36277;32.852;-116.998;2022-11-25T09:16:04;100891.56;;;24.48
45701;BMP280;36277;32.852;-116.998;2022-11-25T09:18:31;100893.81;;;24.44
45701;BMP280;36277;32.852;-116.998;2022-11-25T09:20:58;100895.72;;;24.44
45701;BMP280;36277;32.852;-116.998;2022-11-25T09:23:25;100899.53;;;24.43
45701;BMP280;36277;32.852;-116.998;2022-11-25T09:25:56;100900.38;;;24.43
45701;BMP280;36277;32.852;-116.998;2022-11-25T09:28:23;100897.28;;;24.38
45701;BMP280;36277;32.852;-116.998;2022-11-25T09:30:50;100904.03;;;24.36
45701;BMP280;36277;32.852;-116.998;2022-11-25T09:33:17;100907.81;;;24.35
45701;BMP280;36277;32.852;-116.998;2022-11-25T09:35:44;100904.38;;;24.33
45701;BMP280;36277;32.852;-116.998;2022-11-25T09:38:11;100903.69;;;24.31
45701;BMP280;36277;32.852;-116.998;2022-11-25T09:40:48;100896.44;;;24.30
45701;BMP280;36277;32.852;-116.998;2022-11-25T09:43:43;100895.75;;;24.28
45701;BMP280;36277;32.852;-116.998;2022-11-25T09:46:56;100893.53;;;24.23
45701;BMP280;36277;32.852;-116.998;2022-11-25T10:00:20;100890.63;;;24.09
45701;BMP280;36277;32.852;-116.998;2022-11-25T10:05:53;100900.78;;;24.09
45701;BMP280;36277;32.852;-116.998;2022-11-25T10:08:27;100889.94;;;24.07
45701;BMP280;36277;32.852;-116.998;2022-11-25T10:13:53;100898.91;;;24.01
45701;BMP280;36277;32.852;-116.998;2022-11-25T10:16:38;100896.16;;;24.01
45701;BMP280;36277;32.852;-116.998;2022-11-25T10:22:16;100911.31;;;23.97
45701;BMP280;36277;32.852;-116.998;2022-11-25T10:24:45;100919.97;;;23.94
45701;BMP280;36277;32.852;-116.998;2022-11-25T10:28:09;100918.94;;;23.95
45701;BMP280;36277;32.852;-116.998;2022-11-25T10:34:06;100916.53;;;23.92
45701;BMP280;36277;32.852;-116.998;2022-11-25T10:38:37;100923.06;;;23.83
45701;BMP280;36277;32.852;-116.998;2022-11-25T10:41:04;100915.84;;;23.82
45701;BMP280;36277;32.852;-116.998;2022-11-25T10:43:31;100909.47;;;23.82
45701;BMP280;36277;32.852;-116.998;2022-11-25T10:51:11;100920.84;;;23.79
45701;BMP280;36277;32.852;-116.998;2022-11-25T10:54:18;100915.63;;;23.76
45701;BMP280;36277;32.852;-116.998;2022-11-25T10:56:51;100910.81;;;23.70
45701;BMP280;36277;32.852;-116.998;2022-11-25T11:02:25;100913.06;;;23.66
45701;BMP280;36277;32.852;-116.998;2022-11-25T11:05:25;100917.53;;;23.67
45701;BMP280;36277;32.852;-116.998;2022-11-25T11:08:08;100927.19;;;23.63
45701;BMP280;36277;32.852;-116.998;2022-11-25T11:10:35;100923.03;;;23.59
45701;BMP280;36277;32.852;-116.998;2022-11-25T11:13:04;100937.50;;;23.61
45701;BMP280;36277;32.852;-116.998;2022-11-25T11:20:58;100909.94;;;23.53
45701;BMP280;36277;32.852;-116.998;2022-11-25T11:23:27;100909.94;;;23.53
45701;BMP280;36277;32.852;-116.998;2022-11-25T11:28:25;100904.63;;;23.52
45701;BMP280;36277;32.852;-116.998;2022-11-25T11:41:55;100905.13;;;23.39
45701;BMP280;36277;32.852;-116.998;2022-11-25T11:53:23;100888.91;;;23.28
45701;BMP280;36277;32.852;-116.998;2022-11-25T12:01:26;100895.97;;;23.23
45701;BMP280;36277;32.852;-116.998;2022-11-25T12:04:43;100895.97;;;23.23
45701;BMP280;36277;32.852;-116.998;2022-11-25T12:09:49;100885.47;;;23.18
45701;BMP280;36277;32.852;-116.998;2022-11-25T12:12:17;100902.00;;;23.18
45701;BMP280;36277;32.852;-116.998;2022-11-25T12:14:56;100888.06;;;23.20
45701;BMP280;36277;32.852;-116.998;2022-11-25T12:17:50;100879.44;;;23.15
45701;BMP280;36277;32.852;-116.998;2022-11-25T12:20:37;100888.56;;;23.15
45701;BMP280;36277;32.852;-116.998;2022-11-25T12:26:44;100884.03;;;23.06
45701;BMP280;36277;32.852;-116.998;2022-11-25T12:32:01;100881.28;;;23.06
45701;BMP280;36277;32.852;-116.998;2022-11-25T12:34:38;100878.00;;;23.03
45701;BMP280;36277;32.852;-116.998;2022-11-25T12:37:20;100889.19;;;23.01
45701;BMP280;36277;32.852;-116.998;2022-11-25T12:40:02;100885.72;;;22.99
45701;BMP280;36277;32.852;-116.998;2022-11-25T12:42:31;100874.91;;;22.98
45701;BMP280;36277;32.852;-116.998;2022-11-25T12:45:06;100871.44;;;22.96
45701;BMP280;36277;32.852;-116.998;2022-11-25T12:47:36;100874.72;;;22.92
45701;BMP280;36277;32.852;-116.998;2022-11-25T12:50:02;100866.63;;;22.90
45701;BMP280;36277;32.852;-116.998;2022-11-25T12:53:06;100877.44;;;22.84
45701;BMP280;36277;32.852;-116.998;2022-11-25T12:55:39;100874.84;;;22.82
45701;BMP280;36277;32.852;-116.998;2022-11-25T13:01:08;100873.28;;;22.80
45701;BMP280;36277;32.852;-116.998;2022-11-25T13:17:12;100871.34;;;22.64
45701;BMP280;36277;32.852;-116.998;2022-11-25T13:19:40;100879.94;;;22.61
45701;BMP280;36277;32.852;-116.998;2022-11-25T13:24:56;100871.16;;;22.58
45701;BMP280;36277;32.852;-116.998;2022-11-25T13:30:33;100892.97;;;22.51
45701;BMP280;36277;32.852;-116.998;2022-11-25T13:32:51;100897.09;;;22.47
45701;BMP280;36277;32.852;-116.998;2022-11-25T13:37:48;100897.78;;;22.49
45701;BMP280;36277;32.852;-116.998;2022-11-25T13:42:56;100916.50;;;22.46
45701;BMP280;36277;32.852;-116.998;2022-11-25T13:45:26;100916.81;;;22.43
45701;BMP280;36277;32.852;-116.998;2022-11-25T13:47:54;100907.53;;;22.44
45701;BMP280;36277;32.852;-116.998;2022-11-25T13:50:28;100911.50;;;22.41
45701;BMP280;36277;32.852;-116.998;2022-11-25T13:53:04;100923.19;;;22.43
45701;BMP280;36277;32.852;-116.998;2022-11-25T13:55:36;100920.63;;;22.42
45701;BMP280;36277;32.852;-116.998;2022-11-25T14:23:43;100934.53;;;22.15
45701;BMP280;36277;32.852;-116.998;2022-11-25T14:26:26;100932.78;;;22.14
45701;BMP280;36277;32.852;-116.998;2022-11-25T14:29:03;100942.22;;;22.11
45701;BMP280;36277;32.852;-116.998;2022-11-25T14:31:43;100942.91;;;22.13
45701;BMP280;36277;32.852;-116.998;2022-11-25T14:34:20;100939.47;;;22.11
45701;BMP280;36277;32.852;-116.998;2022-11-25T14:37:13;100930.69;;;22.08
45701;BMP280;36277;32.852;-116.998;2022-11-25T14:39:55;100932.56;;;22.07
45701;BMP280;36277;32.852;-116.998;2022-11-25T14:42:30;100940.97;;;22.06
45701;BMP280;36277;32.852;-116.998;2022-11-25T14:44:58;100940.28;;;22.04
45701;BMP280;36277;32.852;-116.998;2022-11-25T14:47:27;100941.81;;;22.06
45701;BMP280;36277;32.852;-116.998;2022-11-25T14:49:56;100947.50;;;22.05
45701;BMP280;36277;32.852;-116.998;2022-11-25T14:52:34;100947.66;;;22.03
45701;BMP280;36277;32.852;-116.998;2022-11-25T14:55:03;100940.59;;;22.01
45701;BMP280;36277;32.852;-116.998;2022-11-25T14:57:36;100955.22;;;22.01
45701;BMP280;36277;32.852;-116.998;2022-11-25T15:00:10;100945.38;;;21.99
45701;BMP280;36277;32.852;-116.998;2022-11-25T15:02:50;100954.66;;;21.98
45701;BMP280;36277;32.852;-116.998;2022-11-25T15:05:19;100955.84;;;21.95
45701;BMP280;36277;32.852;-116.998;2022-11-25T15:08:09;100954.97;;;21.95
45701;BMP280;36277;32.852;-116.998;2022-11-25T15:13:35;100955.63;;;21.89
45701;BMP280;36277;32.852;-116.998;2022-11-25T15:16:09;100954.44;;;21.91
45701;BMP280;36277;32.852;-116.998;2022-11-25T15:18:46;100962.69;;;21.91
45701;BMP280;36277;32.852;-116.998;2022-11-25T15:21:14;100964.91;;;21.88
45701;BMP280;36277;32.852;-116.998;2022-11-25T15:23:41;100972.56;;;21.85
45701;BMP280;36277;32.852;-116.998;2022-11-25T15:26:22;100971.72;;;21.84
45701;BMP280;36277;32.852;-116.998;2022-11-25T15:29:15;100974.41;;;21.76
45701;BMP280;36277;32.852;-116.998;2022-11-25T15:31:41;100973.69;;;21.74
45701;BMP280;36277;32.852;-116.998;2022-11-25T15:34:11;100975.41;;;21.75
45701;BMP280;36277;32.852;-116.998;2022-11-25T15:36:38;100979.38;;;21.73
45701;BMP280;36277;32.852;-116.998;2022-11-25T15:41:48;100980.53;;;21.70
45701;BMP280;36277;32.852;-116.998;2022-11-25T15:47:20;100985.47;;;21.67
45701;BMP280;36277;32.852;-116.998;2022-11-25T15:52:44;100987.38;;;21.66
45701;BMP280;36277;32.852;-116.998;2022-11-25T15:58:01;100986.66;;;21.64
45701;BMP280;36277;32.852;-116.998;2022-11-25T16:00:28;100985.97;;;21.62
45701;BMP280;36277;32.852;-116.998;2022-11-25T16:02:55;100983.94;;;21.64
45701;BMP280;36277;32.852;-116.998;2022-11-25T16:05:31;100990.25;;;21.65
45701;BMP280;36277;32.852;-116.998;2022-11-25T16:08:00;100992.88;;;21.66
45701;BMP280;36277;32.852;-116.998;2022-11-25T16:10:31;100985.66;;;21.65
45701;BMP280;36277;32.852;-116.998;2022-11-25T16:18:37;100987.91;;;21.70
45701;BMP280;36277;32.852;-116.998;2022-11-25T16:21:13;100988.75;;;21.70